sensor_id;sensor_type;location;lat;lon;timestamp;P1;durP1;ratioP1;P2;durP2;ratioP2
63016;SDS011;50274;45.640;11.756;2024-01-30T00:02:16;43.10;;;25.33;;
63016;SDS011;50274;45.640;11.756;2024-01-30T00:04:42;46.78;;;25.58;;
63016;SDS011;50274;45.640;11.756;2024-01-30T00:07:08;43.08;;;23.70;;
63016;SDS011;50274;45.640;11.756;2024-01-30T00:09:33;50.03;;;26.52;;
63016;SDS011;50274;45.640;11.756;2024-01-30T00:11:59;44.60;;;25.10;;
63016;SDS011;50274;45.640;11.756;2024-01-30T00:14:25;47.20;;;25.70;;
63016;SDS011;50274;45.640;11.756;2024-01-30T00:16:51;51.47;;;26.77;;
63016;SDS011;50274;45.640;11.756;2024-01-30T00:19:17;50.38;;;25.08;;
63016;SDS011;50274;45.640;11.756;2024-01-30T00:21:43;53.40;;;27.10;;
63016;SDS011;50274;45.640;11.756;2024-01-30T00:24:09;57.92;;;28.95;;
63016;SDS011;50274;45.640;11.756;2024-01-30T00:26:35;57.20;;;27.90;;
63016;SDS011;50274;45.640;11.756;2024-01-30T00:29:01;59.33;;;30.60;;
63016;SDS011;50274;45.640;11.756;2024-01-30T00:31:27;51.33;;;26.47;;
63016;SDS011;50274;45.640;11.756;2024-01-30T00:33:53;52.58;;;26.42;;
63016;SDS011;50274;45.640;11.756;2024-01-30T00:36:19;52.42;;;26.13;;
63016;SDS011;50274;45.640;11.756;2024-01-30T00:38:44;46.83;;;25.57;;
63016;SDS011;50274;45.640;11.756;2024-01-30T00:41:10;45.67;;;24.85;;
63016;SDS011;50274;45.640;11.756;2024-01-30T00:43:36;47.00;;;25.40;;
63016;SDS011;50274;45.640;11.756;2024-01-30T00:46:02;42.88;;;23.05;;
63016;SDS011;50274;45.640;11.756;2024-01-30T00:48:28;44.08;;;23.25;;
63016;SDS011;50274;45.640;11.756;2024-01-30T00:50:55;48.00;;;24.05;;
63016;SDS011;50274;45.640;11.756;2024-01-30T00:53:21;43.43;;;25.37;;
63016;SDS011;50274;45.640;11.756;2024-01-30T00:55:47;43.92;;;23.50;;
63016;SDS011;50274;45.640;11.756;2024-01-30T00:58:13;43.35;;;24.02;;
63016;SDS011;50274;45.640;11.756;2024-01-30T01:00:39;41.97;;;23.27;;
63016;SDS011;50274;45.640;11.756;2024-01-30T01:03:04;45.65;;;25.25;;
63016;SDS011;50274;45.640;11.756;2024-01-30T01:05:30;44.10;;;24.58;;
63016;SDS011;50274;45.640;11.756;2024-01-30T01:07:56;42.00;;;23.13;;
63016;SDS011;50274;45.640;11.756;2024-01-30T01:10:22;44.78;;;23.33;;
63016;SDS011;50274;45.640;11.756;2024-01-30T01:12:48;46.58;;;24.98;;
63016;SDS011;50274;45.640;11.756;2024-01-30T01:15:14;49.05;;;24.73;;
63016;SDS011;50274;45.640;11.756;2024-01-30T01:17:40;51.75;;;26.60;;
63016;SDS011;50274;45.640;11.756;2024-01-30T01:20:06;41.63;;;22.58;;
63016;SDS011;50274;45.640;11.756;2024-01-30T01:22:33;38.75;;;22.77;;
63016;SDS011;50274;45.640;11.756;2024-01-30T01:25:00;38.60;;;22.83;;
63016;SDS011;50274;45.640;11.756;2024-01-30T01:27:26;41.45;;;23.35;;
63016;SDS011;50274;45.640;11.756;2024-01-30T01:29:53;42.33;;;24.92;;
63016;SDS011;50274;45.640;11.756;2024-01-30T01:32:19;44.15;;;23.35;;
63016;SDS011;50274;45.640;11.756;2024-01-30T01:34:45;39.67;;;22.25;;
63016;SDS011;50274;45.640;11.756;2024-01-30T01:37:11;40.47;;;22.73;;
63016;SDS011;50274;45.640;11.756;2024-01-30T01:39:37;44.05;;;24.77;;
63016;SDS011;50274;45.640;11.756;2024-01-30T01:42:03;44.17;;;25.17;;
63016;SDS011;50274;45.640;11.756;2024-01-30T01:44:29;39.35;;;24.15;;
63016;SDS011;50274;45.640;11.756;2024-01-30T01:46:55;41.95;;;24.30;;
63016;SDS011;50274;45.640;11.756;2024-01-30T01:49:23;45.42;;;25.08;;
63016;SDS011;50274;45.640;11.756;2024-01-30T01:51:52;45.00;;;25.85;;
63016;SDS011;50274;45.640;11.756;2024-01-30T01:54:21;42.10;;;25.33;;
63016;SDS011;50274;45.640;11.756;2024-01-30T01:56:49;47.55;;;25.20;;
63016;SDS011;50274;45.640;11.756;2024-01-30T01:59:16;49.88;;;28.02;;
63016;SDS011;50274;45.640;11.756;2024-01-30T02:01:43;47.35;;;26.60;;
63016;SDS011;50274;45.640;11.756;2024-01-30T02:04:10;47.30;;;27.45;;
63016;SDS011;50274;45.640;11.756;2024-01-30T02:06:36;42.47;;;24.53;;
63016;SDS011;50274;45.640;11.756;2024-01-30T02:09:03;48.47;;;26.98;;
63016;SDS011;50274;45.640;11.756;2024-01-30T02:11:29;47.47;;;26.95;;
63016;SDS011;50274;45.640;11.756;2024-01-30T02:13:56;46.15;;;25.20;;
63016;SDS011;50274;45.640;11.756;2024-01-30T02:16:23;38.63;;;23.02;;
63016;SDS011;50274;45.640;11.756;2024-01-30T02:18:48;43.55;;;25.60;;
63016;SDS011;50274;45.640;11.756;2024-01-30T02:21:17;44.90;;;25.13;;
63016;SDS011;50274;45.640;11.756;2024-01-30T02:23:44;47.92;;;25.95;;
63016;SDS011;50274;45.640;11.756;2024-01-30T02:26:12;40.90;;;25.08;;
63016;SDS011;50274;45.640;11.756;2024-01-30T02:28:38;46.00;;;24.75;;
63016;SDS011;50274;45.640;11.756;2024-01-30T02:31:04;40.17;;;23.77;;
63016;SDS011;50274;45.640;11.756;2024-01-30T02:33:30;39.05;;;23.40;;
63016;SDS011;50274;45.640;11.756;2024-01-30T02:35:56;35.75;;;22.25;;
63016;SDS011;50274;45.640;11.756;2024-01-30T02:38:22;43.92;;;25.35;;
63016;SDS011;50274;45.640;11.756;2024-01-30T02:40:48;42.22;;;25.75;;
63016;SDS011;50274;45.640;11.756;2024-01-30T02:43:15;40.72;;;25.35;;
63016;SDS011;50274;45.640;11.756;2024-01-30T02:45:42;43.13;;;25.90;;
63016;SDS011;50274;45.640;11.756;2024-01-30T02:48:08;38.88;;;24.15;;
63016;SDS011;50274;45.640;11.756;2024-01-30T02:50:34;41.65;;;23.45;;
63016;SDS011;50274;45.640;11.756;2024-01-30T02:53:00;39.85;;;23.40;;
63016;SDS011;50274;45.640;11.756;2024-01-30T02:55:26;42.78;;;24.10;;
63016;SDS011;50274;45.640;11.756;2024-01-30T02:57:51;35.80;;;21.57;;
63016;SDS011;50274;45.640;11.756;2024-01-30T03:00:18;39.58;;;22.42;;
63016;SDS011;50274;45.640;11.756;2024-01-30T03:02:44;38.00;;;22.10;;
63016;SDS011;50274;45.640;11.756;2024-01-30T03:05:11;36.00;;;21.98;;
63016;SDS011;50274;45.640;11.756;2024-01-30T03:07:37;34.85;;;20.42;;
63016;SDS011;50274;45.640;11.756;2024-01-30T03:10:04;36.45;;;21.27;;
63016;SDS011;50274;45.640;11.756;2024-01-30T03:12:31;32.67;;;20.98;;
63016;SDS011;50274;45.640;11.756;2024-01-30T03:14:57;35.90;;;20.60;;
63016;SDS011;50274;45.640;11.756;2024-01-30T03:17:23;34.47;;;21.58;;
63016;SDS011;50274;45.640;11.756;2024-01-30T03:19:49;34.08;;;20.70;;
63016;SDS011;50274;45.640;11.756;2024-01-30T03:22:16;33.60;;;19.52;;
63016;SDS011;50274;45.640;11.756;2024-01-30T03:24:42;37.22;;;22.35;;
63016;SDS011;50274;45.640;11.756;2024-01-30T03:27:08;36.23;;;21.43;;
63016;SDS011;50274;45.640;11.756;2024-01-30T03:29:34;37.63;;;21.58;;
63016;SDS011;50274;45.640;11.756;2024-01-30T03:32:00;37.15;;;21.42;;
63016;SDS011;50274;45.640;11.756;2024-01-30T03:34:26;31.57;;;19.87;;
63016;SDS011;50274;45.640;11.756;2024-01-30T03:36:51;32.22;;;20.23;;
63016;SDS011;50274;45.640;11.756;2024-01-30T03:39:17;38.17;;;21.73;;
63016;SDS011;50274;45.640;11.756;2024-01-30T03:41:43;30.87;;;18.90;;
63016;SDS011;50274;45.640;11.756;2024-01-30T03:44:09;38.22;;;21.52;;
63016;SDS011;50274;45.640;11.756;2024-01-30T03:46:36;37.80;;;20.75;;
63016;SDS011;50274;45.640;11.756;2024-01-30T03:49:02;34.63;;;20.50;;
63016;SDS011;50274;45.640;11.756;2024-01-30T03:51:28;37.85;;;22.52;;
63016;SDS011;50274;45.640;11.756;2024-01-30T03:53:54;37.75;;;23.35;;
63016;SDS011;50274;45.640;11.756;2024-01-30T03:56:20;36.97;;;22.20;;
63016;SDS011;50274;45.640;11.756;2024-01-30T03:58:45;36.90;;;22.57;;
63016;SDS011;50274;45.640;11.756;2024-01-30T04:01:14;40.03;;;23.40;;
63016;SDS011;50274;45.640;11.756;2024-01-30T04:03:40;41.28;;;23.45;;
63016;SDS011;50274;45.640;11.756;2024-01-30T04:06:07;43.17;;;24.13;;
63016;SDS011;50274;45.640;11.756;2024-01-30T04:08:33;34.47;;;20.85;;
63016;SDS011;50274;45.640;11.756;2024-01-30T04:11:02;38.17;;;21.10;;
63016;SDS011;50274;45.640;11.756;2024-01-30T04:13:32;33.83;;;21.15;;
63016;SDS011;50274;45.640;11.756;2024-01-30T04:15:59;36.00;;;22.30;;
63016;SDS011;50274;45.640;11.756;2024-01-30T04:18:26;37.80;;;21.85;;
63016;SDS011;50274;45.640;11.756;2024-01-30T04:20:52;38.97;;;21.23;;
63016;SDS011;50274;45.640;11.756;2024-01-30T04:23:18;39.10;;;22.02;;
63016;SDS011;50274;45.640;11.756;2024-01-30T04:25:44;37.10;;;21.97;;
63016;SDS011;50274;45.640;11.756;2024-01-30T04:28:10;39.60;;;22.77;;
63016;SDS011;50274;45.640;11.756;2024-01-30T04:30:39;43.92;;;25.33;;
63016;SDS011;50274;45.640;11.756;2024-01-30T04:33:05;39.47;;;22.70;;
63016;SDS011;50274;45.640;11.756;2024-01-30T04:35:31;43.03;;;24.40;;
63016;SDS011;50274;45.640;11.756;2024-01-30T04:37:56;37.03;;;21.95;;
63016;SDS011;50274;45.640;11.756;2024-01-30T04:40:22;42.27;;;22.37;;
63016;SDS011;50274;45.640;11.756;2024-01-30T04:42:48;35.80;;;21.45;;
63016;SDS011;50274;45.640;11.756;2024-01-30T04:45:14;39.80;;;22.50;;
63016;SDS011;50274;45.640;11.756;2024-01-30T04:47:40;37.13;;;21.57;;
63016;SDS011;50274;45.640;11.756;2024-01-30T04:50:06;39.75;;;23.60;;
63016;SDS011;50274;45.640;11.756;2024-01-30T04:52:33;42.38;;;24.30;;
63016;SDS011;50274;45.640;11.756;2024-01-30T04:54:59;37.10;;;22.23;;
63016;SDS011;50274;45.640;11.756;2024-01-30T04:57:25;35.60;;;21.20;;
63016;SDS011;50274;45.640;11.756;2024-01-30T04:59:51;40.67;;;23.10;;
63016;SDS011;50274;45.640;11.756;2024-01-30T05:02:17;39.97;;;22.37;;
63016;SDS011;50274;45.640;11.756;2024-01-30T05:04:42;51.30;;;25.65;;
63016;SDS011;50274;45.640;11.756;2024-01-30T05:07:08;46.38;;;25.35;;
63016;SDS011;50274;45.640;11.756;2024-01-30T05:09:34;46.27;;;25.03;;
63016;SDS011;50274;45.640;11.756;2024-01-30T05:12:00;39.00;;;23.13;;
63016;SDS011;50274;45.640;11.756;2024-01-30T05:14:26;40.20;;;23.88;;
63016;SDS011;50274;45.640;11.756;2024-01-30T05:16:52;39.37;;;23.07;;
63016;SDS011;50274;45.640;11.756;2024-01-30T05:19:18;38.60;;;23.27;;
63016;SDS011;50274;45.640;11.756;2024-01-30T05:21:44;39.22;;;23.10;;
63016;SDS011;50274;45.640;11.756;2024-01-30T05:24:10;43.80;;;23.20;;
63016;SDS011;50274;45.640;11.756;2024-01-30T05:26:36;39.65;;;22.63;;
63016;SDS011;50274;45.640;11.756;2024-01-30T05:29:02;42.35;;;23.77;;
63016;SDS011;50274;45.640;11.756;2024-01-30T05:31:28;43.58;;;24.52;;
63016;SDS011;50274;45.640;11.756;2024-01-30T05:33:54;43.80;;;23.95;;
63016;SDS011;50274;45.640;11.756;2024-01-30T05:36:20;45.17;;;26.92;;
63016;SDS011;50274;45.640;11.756;2024-01-30T05:38:46;43.30;;;24.67;;
63016;SDS011;50274;45.640;11.756;2024-01-30T05:41:13;36.72;;;21.83;;
63016;SDS011;50274;45.640;11.756;2024-01-30T05:43:38;50.10;;;26.47;;
63016;SDS011;50274;45.640;11.756;2024-01-30T05:46:04;46.20;;;24.48;;
63016;SDS011;50274;45.640;11.756;2024-01-30T05:48:31;43.38;;;25.08;;
63016;SDS011;50274;45.640;11.756;2024-01-30T05:50:57;46.75;;;24.88;;
63016;SDS011;50274;45.640;11.756;2024-01-30T05:53:25;49.45;;;25.85;;
63016;SDS011;50274;45.640;11.756;2024-01-30T05:55:50;50.40;;;27.90;;
63016;SDS011;50274;45.640;11.756;2024-01-30T05:58:16;47.05;;;24.90;;
63016;SDS011;50274;45.640;11.756;2024-01-30T06:00:42;55.97;;;27.87;;
63016;SDS011;50274;45.640;11.756;2024-01-30T06:03:08;52.33;;;28.13;;
63016;SDS011;50274;45.640;11.756;2024-01-30T06:05:34;49.97;;;27.97;;
63016;SDS011;50274;45.640;11.756;2024-01-30T06:08:00;41.70;;;23.55;;
63016;SDS011;50274;45.640;11.756;2024-01-30T06:10:25;41.47;;;24.98;;
63016;SDS011;50274;45.640;11.756;2024-01-30T06:12:51;40.03;;;22.93;;
63016;SDS011;50274;45.640;11.756;2024-01-30T06:15:17;44.67;;;25.35;;
63016;SDS011;50274;45.640;11.756;2024-01-30T06:17:43;52.17;;;27.85;;
63016;SDS011;50274;45.640;11.756;2024-01-30T06:20:09;42.07;;;23.87;;
63016;SDS011;50274;45.640;11.756;2024-01-30T06:22:35;48.17;;;24.27;;
63016;SDS011;50274;45.640;11.756;2024-01-30T06:25:01;51.45;;;26.00;;
63016;SDS011;50274;45.640;11.756;2024-01-30T06:27:27;45.13;;;22.97;;
63016;SDS011;50274;45.640;11.756;2024-01-30T06:29:53;42.60;;;22.42;;
63016;SDS011;50274;45.640;11.756;2024-01-30T06:32:19;43.40;;;24.17;;
63016;SDS011;50274;45.640;11.756;2024-01-30T06:34:44;50.67;;;27.30;;
63016;SDS011;50274;45.640;11.756;2024-01-30T06:37:10;48.03;;;26.90;;
63016;SDS011;50274;45.640;11.756;2024-01-30T06:39:36;46.40;;;24.65;;
63016;SDS011;50274;45.640;11.756;2024-01-30T06:42:02;44.83;;;24.37;;
63016;SDS011;50274;45.640;11.756;2024-01-30T06:44:28;45.17;;;26.05;;
63016;SDS011;50274;45.640;11.756;2024-01-30T06:46:54;51.38;;;27.35;;
63016;SDS011;50274;45.640;11.756;2024-01-30T06:49:20;56.23;;;29.77;;
63016;SDS011;50274;45.640;11.756;2024-01-30T06:51:47;47.05;;;25.42;;
63016;SDS011;50274;45.640;11.756;2024-01-30T06:54:13;56.95;;;29.85;;
63016;SDS011;50274;45.640;11.756;2024-01-30T06:56:39;41.75;;;24.90;;
63016;SDS011;50274;45.640;11.756;2024-01-30T06:59:05;47.78;;;25.95;;
63016;SDS011;50274;45.640;11.756;2024-01-30T07:01:30;50.42;;;26.25;;
63016;SDS011;50274;45.640;11.756;2024-01-30T07:03:57;59.20;;;29.17;;
63016;SDS011;50274;45.640;11.756;2024-01-30T07:06:23;60.17;;;32.10;;
63016;SDS011;50274;45.640;11.756;2024-01-30T07:08:49;48.67;;;27.85;;
63016;SDS011;50274;45.640;11.756;2024-01-30T07:11:19;54.53;;;28.50;;
63016;SDS011;50274;45.640;11.756;2024-01-30T07:13:47;67.22;;;34.17;;
63016;SDS011;50274;45.640;11.756;2024-01-30T07:16:14;53.72;;;29.83;;
63016;SDS011;50274;45.640;11.756;2024-01-30T07:18:40;51.65;;;28.63;;
63016;SDS011;50274;45.640;11.756;2024-01-30T07:21:06;49.72;;;27.95;;
63016;SDS011;50274;45.640;11.756;2024-01-30T07:23:32;49.77;;;27.37;;
63016;SDS011;50274;45.640;11.756;2024-01-30T07:26:00;44.47;;;25.13;;
63016;SDS011;50274;45.640;11.756;2024-01-30T07:28:26;46.33;;;24.90;;
63016;SDS011;50274;45.640;11.756;2024-01-30T07:30:52;43.80;;;23.73;;
63016;SDS011;50274;45.640;11.756;2024-01-30T07:33:18;45.17;;;23.33;;
63016;SDS011;50274;45.640;11.756;2024-01-30T07:35:45;41.77;;;21.20;;
63016;SDS011;50274;45.640;11.756;2024-01-30T07:38:11;40.40;;;22.05;;
63016;SDS011;50274;45.640;11.756;2024-01-30T07:40:37;39.05;;;19.90;;
63016;SDS011;50274;45.640;11.756;2024-01-30T07:43:03;44.27;;;22.47;;
63016;SDS011;50274;45.640;11.756;2024-01-30T07:45:29;37.92;;;22.05;;
63016;SDS011;50274;45.640;11.756;2024-01-30T07:47:58;44.97;;;22.25;;
63016;SDS011;50274;45.640;11.756;2024-01-30T07:50:27;41.80;;;23.10;;
63016;SDS011;50274;45.640;11.756;2024-01-30T07:52:53;45.58;;;24.08;;
63016;SDS011;50274;45.640;11.756;2024-01-30T07:55:21;39.67;;;21.93;;
63016;SDS011;50274;45.640;11.756;2024-01-30T07:57:52;42.10;;;21.20;;
63016;SDS011;50274;45.640;11.756;2024-01-30T08:00:18;40.55;;;21.92;;
63016;SDS011;50274;45.640;11.756;2024-01-30T08:02:46;38.53;;;21.05;;
63016;SDS011;50274;45.640;11.756;2024-01-30T08:05:12;40.60;;;25.02;;
63016;SDS011;50274;45.640;11.756;2024-01-30T08:07:40;36.83;;;20.23;;
63016;SDS011;50274;45.640;11.756;2024-01-30T08:10:11;35.03;;;19.38;;
63016;SDS011;50274;45.640;11.756;2024-01-30T08:12:38;36.70;;;21.42;;
63016;SDS011;50274;45.640;11.756;2024-01-30T08:15:04;33.25;;;20.83;;
63016;SDS011;50274;45.640;11.756;2024-01-30T08:17:30;33.57;;;20.40;;
63016;SDS011;50274;45.640;11.756;2024-01-30T08:19:56;31.65;;;18.45;;
63016;SDS011;50274;45.640;11.756;2024-01-30T08:22:22;33.22;;;19.63;;
63016;SDS011;50274;45.640;11.756;2024-01-30T08:24:47;33.40;;;19.13;;
63016;SDS011;50274;45.640;11.756;2024-01-30T08:27:13;35.53;;;20.20;;
63016;SDS011;50274;45.640;11.756;2024-01-30T08:29:39;37.05;;;20.15;;
63016;SDS011;50274;45.640;11.756;2024-01-30T08:32:05;34.47;;;19.10;;
63016;SDS011;50274;45.640;11.756;2024-01-30T08:34:31;31.65;;;18.38;;
63016;SDS011;50274;45.640;11.756;2024-01-30T08:36:57;29.45;;;18.95;;
63016;SDS011;50274;45.640;11.756;2024-01-30T08:39:23;27.52;;;17.75;;
63016;SDS011;50274;45.640;11.756;2024-01-30T08:41:49;33.07;;;18.83;;
63016;SDS011;50274;45.640;11.756;2024-01-30T08:44:15;34.10;;;20.33;;
63016;SDS011;50274;45.640;11.756;2024-01-30T08:46:42;30.50;;;19.58;;
63016;SDS011;50274;45.640;11.756;2024-01-30T08:49:10;32.90;;;18.83;;
63016;SDS011;50274;45.640;11.756;2024-01-30T08:51:38;36.25;;;20.30;;
63016;SDS011;50274;45.640;11.756;2024-01-30T08:54:04;36.88;;;20.77;;
63016;SDS011;50274;45.640;11.756;2024-01-30T08:56:30;33.10;;;20.05;;
63016;SDS011;50274;45.640;11.756;2024-01-30T08:58:56;32.37;;;19.43;;
63016;SDS011;50274;45.640;11.756;2024-01-30T09:01:22;33.45;;;20.25;;
63016;SDS011;50274;45.640;11.756;2024-01-30T09:03:47;31.70;;;18.48;;
63016;SDS011;50274;45.640;11.756;2024-01-30T09:06:13;34.00;;;21.03;;
63016;SDS011;50274;45.640;11.756;2024-01-30T09:08:39;32.40;;;19.38;;
63016;SDS011;50274;45.640;11.756;2024-01-30T09:11:12;30.53;;;18.57;;
63016;SDS011;50274;45.640;11.756;2024-01-30T09:13:39;32.92;;;20.30;;
63016;SDS011;50274;45.640;11.756;2024-01-30T09:16:05;31.08;;;18.33;;
63016;SDS011;50274;45.640;11.756;2024-01-30T09:18:32;32.67;;;19.52;;
63016;SDS011;50274;45.640;11.756;2024-01-30T09:20:58;32.10;;;18.98;;
63016;SDS011;50274;45.640;11.756;2024-01-30T09:23:24;28.97;;;17.90;;
63016;SDS011;50274;45.640;11.756;2024-01-30T09:25:52;30.50;;;18.40;;
63016;SDS011;50274;45.640;11.756;2024-01-30T09:28:19;31.08;;;18.52;;
63016;SDS011;50274;45.640;11.756;2024-01-30T09:30:44;30.45;;;18.65;;
63016;SDS011;50274;45.640;11.756;2024-01-30T09:33:10;34.17;;;19.33;;
63016;SDS011;50274;45.640;11.756;2024-01-30T09:35:36;32.10;;;18.45;;
63016;SDS011;50274;45.640;11.756;2024-01-30T09:38:02;35.28;;;22.98;;
63016;SDS011;50274;45.640;11.756;2024-01-30T09:40:28;35.03;;;23.10;;
63016;SDS011;50274;45.640;11.756;2024-01-30T09:42:54;33.77;;;19.97;;
63016;SDS011;50274;45.640;11.756;2024-01-30T09:45:24;31.92;;;19.83;;
63016;SDS011;50274;45.640;11.756;2024-01-30T09:47:50;34.30;;;20.75;;
63016;SDS011;50274;45.640;11.756;2024-01-30T09:50:17;32.28;;;19.80;;
63016;SDS011;50274;45.640;11.756;2024-01-30T09:52:45;32.67;;;18.93;;
63016;SDS011;50274;45.640;11.756;2024-01-30T09:55:12;30.25;;;19.00;;
63016;SDS011;50274;45.640;11.756;2024-01-30T09:57:38;30.95;;;18.27;;
63016;SDS011;50274;45.640;11.756;2024-01-30T10:00:04;28.73;;;19.13;;
63016;SDS011;50274;45.640;11.756;2024-01-30T10:02:35;25.60;;;16.63;;
63016;SDS011;50274;45.640;11.756;2024-01-30T10:05:01;28.40;;;16.77;;
63016;SDS011;50274;45.640;11.756;2024-01-30T10:07:27;28.52;;;16.88;;
63016;SDS011;50274;45.640;11.756;2024-01-30T10:09:53;24.65;;;15.20;;
63016;SDS011;50274;45.640;11.756;2024-01-30T10:12:22;26.85;;;16.42;;
63016;SDS011;50274;45.640;11.756;2024-01-30T10:14:48;22.83;;;14.93;;
63016;SDS011;50274;45.640;11.756;2024-01-30T10:17:14;28.45;;;17.27;;
63016;SDS011;50274;45.640;11.756;2024-01-30T10:19:40;28.63;;;16.67;;
63016;SDS011;50274;45.640;11.756;2024-01-30T10:22:07;25.20;;;16.52;;
63016;SDS011;50274;45.640;11.756;2024-01-30T10:24:33;23.33;;;14.33;;
63016;SDS011;50274;45.640;11.756;2024-01-30T10:26:59;26.63;;;15.82;;
63016;SDS011;50274;45.640;11.756;2024-01-30T10:29:25;24.60;;;16.17;;
63016;SDS011;50274;45.640;11.756;2024-01-30T10:32:02;24.55;;;14.75;;
63016;SDS011;50274;45.640;11.756;2024-01-30T10:34:30;29.05;;;16.77;;
63016;SDS011;50274;45.640;11.756;2024-01-30T10:39:42;26.85;;;15.77;;
63016;SDS011;50274;45.640;11.756;2024-01-30T10:42:11;25.50;;;15.70;;
63016;SDS011;50274;45.640;11.756;2024-01-30T10:47:26;25.50;;;16.35;;
63016;SDS011;50274;45.640;11.756;2024-01-30T10:49:53;28.80;;;16.60;;
63016;SDS011;50274;45.640;11.756;2024-01-30T10:52:21;25.13;;;16.20;;
63016;SDS011;50274;45.640;11.756;2024-01-30T10:54:50;27.00;;;15.85;;
63016;SDS011;50274;45.640;11.756;2024-01-30T10:57:17;27.75;;;15.50;;
63016;SDS011;50274;45.640;11.756;2024-01-30T10:59:43;27.08;;;15.32;;
63016;SDS011;50274;45.640;11.756;2024-01-30T11:02:12;26.50;;;14.20;;
63016;SDS011;50274;45.640;11.756;2024-01-30T11:04:42;22.83;;;14.57;;
63016;SDS011;50274;45.640;11.756;2024-01-30T11:07:17;25.63;;;15.98;;
63016;SDS011;50274;45.640;11.756;2024-01-30T11:09:50;24.10;;;15.25;;
63016;SDS011;50274;45.640;11.756;2024-01-30T11:12:24;23.08;;;14.38;;
63016;SDS011;50274;45.640;11.756;2024-01-30T11:15:03;26.10;;;14.97;;
63016;SDS011;50274;45.640;11.756;2024-01-30T11:20:21;26.80;;;16.10;;
63016;SDS011;50274;45.640;11.756;2024-01-30T11:22:53;26.38;;;15.55;;
63016;SDS011;50274;45.640;11.756;2024-01-30T11:25:23;27.27;;;15.80;;
63016;SDS011;50274;45.640;11.756;2024-01-30T11:27:50;25.30;;;15.63;;
63016;SDS011;50274;45.640;11.756;2024-01-30T11:30:27;28.35;;;15.93;;
63016;SDS011;50274;45.640;11.756;2024-01-30T11:33:00;26.92;;;15.45;;
63016;SDS011;50274;45.640;11.756;2024-01-30T11:35:40;25.75;;;14.95;;
63016;SDS011;50274;45.640;11.756;2024-01-30T11:38:07;26.08;;;14.93;;
63016;SDS011;50274;45.640;11.756;2024-01-30T11:40:36;24.23;;;14.63;;
63016;SDS011;50274;45.640;11.756;2024-01-30T11:43:03;23.77;;;13.82;;
63016;SDS011;50274;45.640;11.756;2024-01-30T11:45:30;24.77;;;14.48;;
63016;SDS011;50274;45.640;11.756;2024-01-30T11:47:57;26.40;;;15.35;;
63016;SDS011;50274;45.640;11.756;2024-01-30T11:50:25;27.15;;;15.50;;
63016;SDS011;50274;45.640;11.756;2024-01-30T11:52:51;27.70;;;15.93;;
63016;SDS011;50274;45.640;11.756;2024-01-30T11:55:17;29.98;;;15.98;;
63016;SDS011;50274;45.640;11.756;2024-01-30T11:57:45;25.02;;;15.02;;
63016;SDS011;50274;45.640;11.756;2024-01-30T12:00:15;27.60;;;16.70;;
63016;SDS011;50274;45.640;11.756;2024-01-30T12:02:42;27.13;;;16.87;;
63016;SDS011;50274;45.640;11.756;2024-01-30T12:05:08;31.58;;;18.80;;
63016;SDS011;50274;45.640;11.756;2024-01-30T12:07:35;33.60;;;17.50;;
63016;SDS011;50274;45.640;11.756;2024-01-30T12:10:01;28.98;;;17.27;;
63016;SDS011;50274;45.640;11.756;2024-01-30T12:12:28;25.98;;;16.92;;
63016;SDS011;50274;45.640;11.756;2024-01-30T12:14:55;30.67;;;17.70;;
63016;SDS011;50274;45.640;11.756;2024-01-30T12:17:28;30.50;;;17.83;;
63016;SDS011;50274;45.640;11.756;2024-01-30T12:20:05;30.27;;;17.05;;
63016;SDS011;50274;45.640;11.756;2024-01-30T12:22:47;30.08;;;18.35;;
63016;SDS011;50274;45.640;11.756;2024-01-30T12:25:15;30.80;;;16.73;;
63016;SDS011;50274;45.640;11.756;2024-01-30T12:27:42;27.90;;;16.70;;
63016;SDS011;50274;45.640;11.756;2024-01-30T12:30:10;29.67;;;17.48;;
63016;SDS011;50274;45.640;11.756;2024-01-30T12:32:40;30.30;;;18.15;;
63016;SDS011;50274;45.640;11.756;2024-01-30T12:35:11;29.42;;;17.05;;
63016;SDS011;50274;45.640;11.756;2024-01-30T12:37:38;27.85;;;17.08;;
63016;SDS011;50274;45.640;11.756;2024-01-30T12:40:05;30.37;;;17.53;;
63016;SDS011;50274;45.640;11.756;2024-01-30T12:42:32;27.60;;;16.38;;
63016;SDS011;50274;45.640;11.756;2024-01-30T12:44:58;30.98;;;17.40;;
63016;SDS011;50274;45.640;11.756;2024-01-30T12:47:24;29.55;;;17.38;;
63016;SDS011;50274;45.640;11.756;2024-01-30T12:49:50;29.23;;;16.87;;
63016;SDS011;50274;45.640;11.756;2024-01-30T12:52:20;28.98;;;17.33;;
63016;SDS011;50274;45.640;11.756;2024-01-30T12:54:47;30.58;;;17.30;;
63016;SDS011;50274;45.640;11.756;2024-01-30T12:57:13;30.23;;;18.00;;
63016;SDS011;50274;45.640;11.756;2024-01-30T12:59:39;29.93;;;17.23;;
63016;SDS011;50274;45.640;11.756;2024-01-30T13:02:05;27.55;;;15.73;;
63016;SDS011;50274;45.640;11.756;2024-01-30T13:04:31;28.75;;;16.95;;
63016;SDS011;50274;45.640;11.756;2024-01-30T13:06:58;30.70;;;18.13;;
63016;SDS011;50274;45.640;11.756;2024-01-30T13:09:25;29.02;;;17.88;;
63016;SDS011;50274;45.640;11.756;2024-01-30T13:11:51;31.87;;;19.30;;
63016;SDS011;50274;45.640;11.756;2024-01-30T13:14:18;32.15;;;18.27;;
63016;SDS011;50274;45.640;11.756;2024-01-30T13:16:44;29.85;;;17.90;;
63016;SDS011;50274;45.640;11.756;2024-01-30T13:19:10;30.13;;;18.63;;
63016;SDS011;50274;45.640;11.756;2024-01-30T13:21:37;27.55;;;18.27;;
63016;SDS011;50274;45.640;11.756;2024-01-30T13:24:03;29.90;;;18.37;;
63016;SDS011;50274;45.640;11.756;2024-01-30T13:26:31;28.55;;;17.98;;
63016;SDS011;50274;45.640;11.756;2024-01-30T13:28:58;28.27;;;17.73;;
63016;SDS011;50274;45.640;11.756;2024-01-30T13:31:24;29.15;;;18.38;;
63016;SDS011;50274;45.640;11.756;2024-01-30T13:33:50;30.77;;;18.52;;
63016;SDS011;50274;45.640;11.756;2024-01-30T13:36:16;29.10;;;19.17;;
63016;SDS011;50274;45.640;11.756;2024-01-30T13:38:42;33.53;;;20.05;;
63016;SDS011;50274;45.640;11.756;2024-01-30T13:41:08;30.73;;;18.42;;
63016;SDS011;50274;45.640;11.756;2024-01-30T13:43:34;27.10;;;17.75;;
63016;SDS011;50274;45.640;11.756;2024-01-30T13:46:00;30.70;;;17.77;;
63016;SDS011;50274;45.640;11.756;2024-01-30T13:48:26;31.98;;;19.25;;
63016;SDS011;50274;45.640;11.756;2024-01-30T13:50:53;30.85;;;17.15;;
63016;SDS011;50274;45.640;11.756;2024-01-30T13:53:19;28.17;;;16.90;;
63016;SDS011;50274;45.640;11.756;2024-01-30T13:55:47;26.37;;;16.10;;
63016;SDS011;50274;45.640;11.756;2024-01-30T13:58:13;30.13;;;18.45;;
63016;SDS011;50274;45.640;11.756;2024-01-30T14:00:39;29.92;;;19.17;;
63016;SDS011;50274;45.640;11.756;2024-01-30T14:03:06;30.98;;;17.65;;
63016;SDS011;50274;45.640;11.756;2024-01-30T14:05:32;31.77;;;19.13;;
63016;SDS011;50274;45.640;11.756;2024-01-30T14:07:58;32.05;;;17.92;;
63016;SDS011;50274;45.640;11.756;2024-01-30T14:10:25;32.97;;;18.25;;
63016;SDS011;50274;45.640;11.756;2024-01-30T14:12:51;30.77;;;17.95;;
63016;SDS011;50274;45.640;11.756;2024-01-30T14:15:17;31.93;;;18.33;;